createdAt,value
2023-01-03T01:04:14.860Z,20.10
2023-01-03T01:09:21.455Z,19.30
2023-01-03T01:14:23.898Z,19.35
2023-01-03T01:19:15.765Z,20.90
2023-01-03T01:24:12.875Z,18.97
2023-01-03T01:29:13.950Z,17.80
2023-01-03T01:34:07.494Z,18.67
2023-01-03T01:39:05.954Z,18.42
2023-01-03T01:44:12.589Z,18.83
2023-01-03T01:49:19.267Z,19.60
2023-01-03T01:54:26.332Z,18.95
2023-01-03T01:59:23.483Z,20.75
2023-01-03T02:04:24.608Z,27.58
2023-01-03T02:09:17.804Z,24.60
2023-01-03T02:14:27.813Z,24.08
2023-01-03T02:19:53.627Z,23.65
2023-01-03T02:25:18.488Z,23.93
2023-01-03T02:30:39.027Z,22.77
2023-01-03T02:35:40.615Z,21.25
2023-01-03T02:40:41.036Z,20.98
2023-01-03T02:46:04.388Z,21.92
2023-01-03T02:51:11.299Z,21.73
2023-01-03T02:56:10.024Z,20.98
2023-01-03T03:01:07.015Z,20.63
2023-01-03T03:06:19.101Z,20.17
2023-01-03T03:11:27.341Z,22.35
2023-01-03T03:16:49.561Z,22.95
2023-01-03T03:22:00.550Z,24.60
2023-01-03T03:26:55.688Z,24.95
2023-01-03T03:31:51.393Z,25.85
2023-01-03T03:36:50.534Z,26.05
2023-01-03T03:42:05.507Z,25.90
2023-01-03T03:47:24.556Z,24.88
2023-01-03T03:52:27.331Z,26.60
2023-01-03T03:57:28.621Z,28.13
2023-01-03T04:02:24.579Z,29.25
2023-01-03T04:07:26.373Z,30.27
2023-01-03T04:12:21.474Z,29.77
2023-01-03T04:17:23.368Z,29.00
2023-01-03T04:22:25.582Z,29.38
2023-01-03T04:27:24.998Z,27.20
2023-01-03T04:32:32.793Z,26.25
2023-01-03T04:37:40.766Z,24.63
2023-01-03T04:42:50.855Z,24.33
2023-01-03T04:47:46.315Z,23.83
2023-01-03T04:52:51.397Z,23.73
2023-01-03T04:57:51.695Z,22.75
2023-01-03T05:02:50.554Z,22.63
2023-01-03T05:07:40.706Z,22.00
2023-01-03T05:12:32.825Z,20.58
2023-01-03T05:17:26.588Z,20.92
2023-01-03T05:22:30.359Z,21.13
2023-01-03T05:27:24.920Z,20.20
2023-01-03T05:32:24.251Z,21.33
2023-01-03T05:37:32.763Z,19.77
2023-01-03T05:42:26.134Z,20.20
2023-01-03T05:47:21.407Z,19.20
2023-01-03T05:52:17.529Z,18.42
2023-01-03T05:57:13.439Z,18.73
2023-01-03T06:02:06.033Z,17.67
2023-01-03T06:06:57.329Z,18.35
2023-01-03T06:11:50.298Z,18.30
2023-01-03T06:16:57.572Z,18.80
2023-01-03T06:21:49.294Z,18.37
2023-01-03T06:26:44.518Z,17.50
2023-01-03T06:31:35.230Z,17.23
2023-01-03T06:36:34.556Z,16.33
2023-01-03T06:41:28.964Z,16.00
2023-01-03T06:46:32.927Z,16.30
2023-01-03T06:51:43.020Z,16.38
2023-01-03T06:56:38.666Z,16.17
2023-01-03T07:01:40.679Z,15.97
2023-01-03T07:06:47.762Z,16.17
2023-01-03T07:11:45.869Z,17.40
2023-01-03T07:16:46.215Z,16.25
2023-01-03T07:21:46.594Z,17.15
2023-01-03T07:26:47.827Z,17.00
2023-01-03T07:31:43.253Z,17.55
2023-01-03T07:36:34.450Z,17.58
2023-01-03T07:41:52.647Z,16.23
2023-01-03T07:46:43.520Z,16.20
2023-01-03T07:51:34.294Z,15.82
2023-01-03T07:56:29.818Z,16.77
2023-01-03T08:01:39.964Z,16.25
2023-01-03T08:06:41.975Z,16.52
2023-01-03T08:11:47.830Z,17.50
2023-01-03T08:16:43.171Z,17.95
2023-01-03T08:21:35.392Z,19.30
2023-01-03T08:26:39.485Z,20.27
2023-01-03T08:31:35.783Z,23.20
2023-01-03T08:36:32.079Z,24.87
2023-01-03T08:41:31.574Z,27.10
2023-01-03T08:46:35.425Z,27.88
2023-01-03T08:51:27.286Z,28.95
2023-01-03T08:56:24.813Z,28.98
2023-01-03T09:01:19.158Z,30.20
2023-01-03T09:06:23.382Z,31.25
2023-01-03T09:11:19.154Z,33.23
2023-01-03T09:16:17.322Z,33.40
2023-01-03T09:21:17.079Z,34.47
2023-01-03T09:26:12.661Z,34.33
2023-01-03T09:31:03.605Z,36.65
2023-01-03T09:35:59.214Z,40.13
2023-01-03T09:41:02.091Z,39.75
2023-01-03T09:46:04.981Z,39.90
2023-01-03T09:51:18.220Z,42.72
2023-01-03T09:56:35.349Z,38.92
2023-01-03T10:01:55.249Z,38.90
2023-01-03T10:07:02.216Z,36.72
2023-01-03T10:12:09.739Z,36.10
2023-01-03T10:17:16.160Z,34.30
2023-01-03T10:22:15.704Z,31.00
2023-01-03T10:27:21.638Z,30.27
2023-01-03T10:32:30.907Z,28.30
2023-01-03T10:37:26.001Z,26.90
2023-01-03T10:42:29.156Z,26.80
2023-01-03T10:47:22.477Z,23.80
2023-01-03T10:52:17.102Z,24.75
2023-01-03T10:57:14.949Z,23.58
2023-01-03T11:02:20.554Z,22.93
2023-01-03T11:07:27.790Z,23.77
2023-01-03T11:12:26.780Z,22.58
2023-01-03T11:17:19.652Z,24.13
2023-01-03T11:22:25.151Z,21.63
2023-01-03T11:27:26.946Z,20.30
2023-01-03T11:32:32.619Z,18.58
2023-01-03T11:37:40.924Z,17.30
2023-01-03T11:42:40.704Z,16.33
2023-01-03T11:47:46.094Z,16.02
2023-01-03T11:52:51.163Z,14.48
2023-01-03T11:57:51.944Z,12.32
2023-01-03T12:03:11.054Z,11.70
2023-01-03T12:08:26.319Z,8.75
2023-01-03T12:13:37.064Z,9.07
2023-01-03T12:18:36.278Z,8.63
2023-01-03T12:24:25.844Z,8.10
2023-01-03T12:29:23.853Z,7.15
2023-01-03T12:34:30.976Z,8.02
2023-01-03T12:39:42.088Z,7.40
2023-01-03T12:44:47.331Z,6.38
2023-01-03T12:50:08.799Z,6.10
2023-01-03T12:55:19.088Z,5.80
2023-01-03T13:00:29.871Z,4.82
2023-01-03T13:05:32.367Z,4.83
2023-01-03T13:10:36.282Z,5.32
2023-01-03T13:15:37.785Z,5.38
2023-01-03T13:20:46.381Z,7.33
2023-01-03T13:25:46.221Z,5.90
2023-01-03T13:30:47.873Z,4.82
2023-01-03T13:35:54.687Z,4.70
2023-01-03T13:41:19.509Z,5.10
2023-01-03T13:46:26.163Z,4.97
2023-01-03T13:51:51.062Z,4.07
2023-01-03T13:57:12.459Z,4.63
2023-01-03T14:02:47.106Z,4.38
2023-01-03T14:08:00.870Z,4.20
2023-01-03T14:13:21.441Z,4.45
2023-01-03T14:18:32.473Z,3.90
2023-01-03T14:28:41.111Z,4.18
2023-01-03T14:33:48.189Z,3.60
2023-01-03T14:38:49.684Z,4.28
2023-01-03T14:43:48.798Z,4.22
2023-01-03T14:48:41.393Z,4.22
2023-01-03T14:53:34.731Z,3.58
2023-01-03T14:58:36.017Z,2.88
2023-01-03T15:03:35.788Z,2.50
2023-01-03T15:08:32.678Z,2.28
2023-01-03T15:13:32.151Z,2.30
2023-01-03T15:18:47.653Z,2.78
2023-01-03T15:23:45.757Z,2.20
2023-01-03T15:28:53.657Z,2.10
2023-01-03T15:33:53.036Z,2.63
2023-01-03T15:38:53.418Z,2.00
2023-01-03T15:43:51.682Z,2.25
2023-01-03T15:48:46.877Z,2.20
2023-01-03T15:53:46.377Z,2.35
2023-01-03T15:58:53.878Z,2.60
2023-01-03T16:03:47.677Z,1.77
2023-01-03T16:08:47.340Z,2.13
2023-01-03T16:13:45.321Z,1.67
2023-01-03T16:18:43.496Z,1.58
2023-01-03T16:23:39.983Z,1.40
2023-01-03T16:28:36.146Z,1.33
2023-01-03T16:33:34.563Z,2.10
2023-01-03T16:38:41.540Z,2.17
2023-01-03T16:43:37.915Z,1.70
2023-01-03T16:48:40.139Z,1.67
2023-01-03T16:53:53.950Z,1.60
2023-01-03T16:58:52.580Z,1.58
2023-01-03T17:03:49.112Z,1.97
2023-01-03T17:08:45.495Z,2.25
2023-01-03T17:13:37.799Z,2.10
2023-01-03T17:18:32.867Z,2.77
2023-01-03T17:23:26.018Z,2.17
2023-01-03T17:28:20.870Z,3.10
2023-01-03T17:33:16.170Z,2.60
2023-01-03T17:38:31.101Z,2.50
2023-01-03T17:43:26.556Z,2.60
2023-01-03T17:48:29.692Z,2.83
2023-01-03T17:53:31.941Z,2.30
2023-01-03T17:58:34.878Z,2.75
2023-01-03T18:03:29.293Z,2.97
2023-01-03T18:08:31.795Z,2.67
2023-01-03T18:13:29.851Z,3.20
2023-01-03T18:18:30.405Z,2.55
2023-01-03T18:23:25.815Z,2.72
2023-01-03T18:28:29.568Z,3.73
2023-01-03T18:33:23.242Z,2.92
2023-01-03T18:38:28.894Z,2.55
2023-01-03T18:43:32.343Z,2.63
2023-01-03T18:48:27.249Z,3.20
2023-01-03T18:53:22.435Z,2.75
2023-01-03T18:58:43.172Z,2.33
2023-01-03T19:03:38.249Z,2.20
2023-01-03T19:08:50.065Z,1.53
2023-01-03T19:13:55.284Z,2.17
2023-01-03T19:18:50.935Z,2.40
2023-01-03T19:23:48.749Z,1.50
2023-01-03T19:28:47.167Z,1.20
2023-01-03T19:33:44.177Z,1.80
2023-01-03T19:38:41.609Z,1.60
2023-01-03T19:43:45.639Z,1.38
2023-01-03T19:48:49.355Z,1.27
2023-01-03T19:53:43.359Z,1.60
2023-01-03T19:58:43.308Z,0.90
2023-01-03T20:03:43.448Z,1.38
2023-01-03T20:08:44.359Z,1.10
2023-01-03T20:13:37.321Z,1.15
2023-01-03T20:18:44.248Z,0.90
2023-01-03T20:23:49.704Z,1.17
2023-01-03T20:28:39.830Z,1.00
2023-01-03T20:33:34.005Z,1.48
2023-01-03T20:38:30.072Z,0.90
2023-01-03T20:43:30.710Z,0.93
2023-01-03T20:48:32.074Z,1.02
2023-01-03T20:53:25.752Z,1.10
2023-01-03T20:58:25.406Z,0.80
2023-01-03T21:03:24.479Z,3.50
2023-01-03T21:09:01.199Z,8.67
2023-01-03T21:13:57.811Z,0.90
2023-01-03T21:18:51.091Z,1.57
2023-01-03T21:23:40.870Z,1.13
2023-01-03T21:28:31.280Z,1.10
2023-01-03T21:33:25.479Z,1.20
2023-01-03T21:38:21.453Z,0.82
2023-01-03T21:43:16.162Z,1.10
2023-01-03T21:48:09.147Z,0.90
2023-01-03T21:53:04.726Z,1.08
2023-01-03T21:58:01.918Z,1.00
2023-01-03T22:03:06.137Z,1.00
2023-01-03T22:07:58.010Z,0.77
2023-01-03T22:12:50.387Z,0.88
2023-01-03T22:17:47.738Z,0.90
2023-01-03T22:22:38.908Z,1.20
2023-01-03T22:27:31.726Z,1.10
2023-01-03T22:32:28.068Z,0.93
2023-01-03T22:37:44.950Z,1.10
2023-01-03T22:42:36.768Z,0.70
2023-01-03T22:47:30.653Z,1.20
2023-01-03T22:52:27.550Z,1.00
2023-01-03T22:57:34.001Z,0.80
2023-01-03T23:02:32.286Z,0.82
2023-01-03T23:07:30.340Z,1.20
2023-01-03T23:12:34.588Z,0.80
2023-01-03T23:17:39.593Z,0.90
2023-01-03T23:22:29.562Z,0.90
2023-01-03T23:27:21.238Z,1.10
2023-01-03T23:32:21.997Z,1.20
2023-01-03T23:37:15.621Z,0.90
2023-01-03T23:42:08.245Z,1.27
2023-01-03T23:47:05.003Z,1.30
2023-01-03T23:52:00.425Z,0.80
2023-01-03T23:56:53.751Z,0.98
